createdAt,value
2017-02-03T16:11:49.941Z,1004.19
2017-02-03T16:12:50.635Z,1004.16
2017-02-03T16:13:51.308Z,1004.18
2017-02-03T16:14:51.987Z,1004.18
2017-02-03T16:15:52.652Z,1004.18
2017-02-03T16:16:53.327Z,1004.15
2017-02-03T16:17:53.988Z,1004.18
2017-02-03T16:18:54.646Z,1004.18
2017-02-03T16:19:55.322Z,1004.15
2017-02-03T16:20:56.034Z,1004.17
2017-02-03T16:21:56.738Z,1004.14
2017-02-03T16:22:57.423Z,1004.13
2017-02-03T16:23:58.080Z,1004.2
2017-02-03T16:24:58.767Z,1004.16
2017-02-03T16:25:59.423Z,1004.14
2017-02-03T16:27:00.101Z,1004.17
2017-02-03T16:28:00.777Z,1004.14
2017-02-03T16:29:01.448Z,1004.14
2017-02-03T16:30:02.113Z,1004.11
2017-02-03T16:31:02.779Z,1004.13
2017-02-03T16:32:03.472Z,1004.13
2017-02-03T16:33:04.156Z,1004.14
2017-02-03T16:34:04.831Z,1004.13
2017-02-03T16:35:05.512Z,1004.14
2017-02-03T16:36:06.194Z,1004.1
2017-02-03T16:37:06.857Z,1004.12
2017-02-03T16:38:07.613Z,1004.14
2017-02-03T16:39:08.275Z,1004.12
2017-02-03T16:40:08.951Z,1004.13
2017-02-03T16:41:09.629Z,1004.17
2017-02-03T16:42:10.294Z,1004.16
2017-02-03T16:43:10.984Z,1004.15
2017-02-03T16:44:11.681Z,1004.18
2017-02-03T16:45:12.387Z,1004.22
2017-02-03T16:46:13.101Z,1004.2
2017-02-03T16:47:13.786Z,1004.16
2017-02-03T16:48:14.447Z,1004.16
2017-02-03T16:49:15.120Z,1004.17
2017-02-03T16:50:15.789Z,1004.15
2017-02-03T16:51:16.471Z,1004.19
2017-02-03T16:52:17.147Z,1004.17
2017-02-03T16:53:17.809Z,1004.13
2017-02-03T16:54:18.671Z,1004.17
2017-02-03T16:55:19.351Z,1004.09
2017-02-03T16:56:20.029Z,1004.11
2017-02-03T16:57:20.709Z,1004.1
2017-02-03T16:58:21.386Z,1004.1
2017-02-03T16:59:22.125Z,1004.11
2017-02-03T17:00:22.809Z,1004.09
2017-02-03T17:01:23.524Z,1004.1
2017-02-03T17:02:24.271Z,1004.11
2017-02-03T17:03:24.993Z,1004.08
2017-02-03T17:04:25.716Z,1004.13
2017-02-03T17:05:26.561Z,1004.13
2017-02-03T17:06:27.309Z,1004.08
2017-02-03T17:07:28.058Z,1004.12
2017-02-03T17:08:28.752Z,1004.08
2017-02-03T17:09:29.426Z,1004.09
2017-02-03T17:10:30.092Z,1004.1
2017-02-03T17:11:30.765Z,1004.12
2017-02-03T17:12:31.466Z,1004.1
2017-02-03T17:13:32.171Z,1004.11
2017-02-03T17:14:32.860Z,1004.13
2017-02-03T17:15:33.546Z,1004.1
2017-02-03T17:16:34.231Z,1004.13
2017-02-03T17:17:34.947Z,1004.13
2017-02-03T17:18:35.612Z,1004.12
2017-02-03T17:19:36.310Z,1004.06
2017-02-03T17:20:36.996Z,1004.09
2017-02-03T17:21:37.677Z,1004.08
2017-02-03T17:22:38.369Z,1004.07
2017-02-03T17:23:39.040Z,1004.05
2017-02-03T17:24:39.720Z,1004.04
2017-02-03T17:25:40.372Z,1004.02
2017-02-03T17:26:41.059Z,1003.96
2017-02-03T17:27:41.735Z,1003.99
2017-02-03T17:28:42.396Z,1003.98
2017-02-03T17:29:43.068Z,1004
2017-02-03T17:30:43.748Z,1003.99
2017-02-03T17:31:44.452Z,1003.97
2017-02-03T17:32:45.114Z,1003.97
2017-02-03T17:33:45.808Z,1003.92
2017-02-03T17:34:47.767Z,1004.01
2017-02-03T17:35:48.430Z,1003.92
2017-02-03T17:36:50.174Z,1003.9
2017-02-03T17:37:50.882Z,1003.92
2017-02-03T17:38:51.687Z,1003.87
2017-02-03T17:39:52.421Z,1003.9
2017-02-03T17:40:53.103Z,1003.9
2017-02-03T17:41:53.771Z,1003.88
2017-02-03T17:42:54.487Z,1003.92
2017-02-03T17:43:55.223Z,1003.87
2017-02-03T17:44:55.947Z,1003.83
2017-02-03T17:45:56.626Z,1003.84
2017-02-03T17:46:57.279Z,1003.88
2017-02-03T17:47:57.952Z,1003.88
2017-02-03T17:48:58.621Z,1003.84
2017-02-03T17:49:59.301Z,1003.87
2017-02-03T17:50:59.991Z,1003.85
2017-02-03T17:52:00.660Z,1003.83
2017-02-03T17:53:01.421Z,1003.88
2017-02-03T17:54:02.156Z,1003.87
2017-02-03T17:55:02.910Z,1003.9
2017-02-03T17:56:03.597Z,1003.84
2017-02-03T17:57:04.386Z,1003.85
2017-02-03T17:58:05.081Z,1003.84
2017-02-03T17:59:05.720Z,1003.82
2017-02-03T18:00:06.463Z,1003.82
2017-02-03T18:01:07.098Z,1003.83
2017-02-03T18:02:07.850Z,1003.83
2017-02-03T18:03:08.510Z,1003.84
2017-02-03T18:04:09.174Z,1003.82
2017-02-03T18:05:09.844Z,1003.86
2017-02-03T18:06:10.525Z,1003.89
2017-02-03T18:07:11.200Z,1003.87
2017-02-03T18:08:11.858Z,1003.87
2017-02-03T18:09:12.550Z,1003.85
2017-02-03T18:10:13.293Z,1003.9
2017-02-03T18:11:14.686Z,1003.88
2017-02-03T18:12:15.356Z,1003.88
2017-02-03T18:13:16.214Z,1003.85
2017-02-03T18:14:17.006Z,1003.87
2017-02-03T18:15:17.727Z,1003.84
2017-02-03T18:16:18.531Z,1003.85
2017-02-03T18:17:19.372Z,1003.82
2017-02-03T18:18:20.157Z,1003.85
2017-02-03T18:19:21.014Z,1003.83
2017-02-03T18:20:21.932Z,1003.76
2017-02-03T18:21:22.638Z,1003.77
2017-02-03T18:22:23.417Z,1003.79
2017-02-03T18:23:24.345Z,1003.79
2017-02-03T18:24:25.133Z,1003.77
2017-02-03T18:25:25.859Z,1003.74
2017-02-03T18:26:26.707Z,1003.73
2017-02-03T18:27:27.400Z,1003.71
2017-02-03T18:28:28.068Z,1003.74
2017-02-03T18:29:28.745Z,1003.76
2017-02-03T18:30:29.431Z,1003.77
2017-02-03T18:31:30.140Z,1003.73
2017-02-03T18:32:30.980Z,1003.77
2017-02-03T18:33:31.758Z,1003.76
2017-02-03T18:34:32.592Z,1003.76
2017-02-03T18:35:33.324Z,1003.72
2017-02-03T18:36:34.195Z,1003.76
2017-02-03T18:37:35.794Z,1003.72
2017-02-03T18:38:36.545Z,1003.79
2017-02-03T18:39:37.543Z,1003.75
2017-02-03T18:40:38.367Z,1003.79
2017-02-03T18:41:39.444Z,1003.82
2017-02-03T18:42:40.737Z,1003.83
2017-02-03T18:43:42.025Z,1003.73
2017-02-03T18:44:42.846Z,1003.76
2017-02-03T18:45:43.825Z,1003.82
2017-02-03T18:46:45.047Z,1003.78
2017-02-03T18:47:46.446Z,1003.75
2017-02-03T18:48:47.740Z,1003.76
2017-02-03T18:49:48.694Z,1003.79
2017-02-03T18:50:49.534Z,1003.75
2017-02-03T18:51:50.219Z,1003.8
2017-02-03T18:52:50.939Z,1003.8
2017-02-03T18:53:51.620Z,1003.81
2017-02-03T18:54:52.320Z,1003.84
2017-02-03T18:55:53.043Z,1003.84
2017-02-03T18:56:53.741Z,1003.84
2017-02-03T18:57:54.453Z,1003.82
2017-02-03T18:58:55.239Z,1003.87
2017-02-03T18:59:55.970Z,1003.83
2017-02-03T19:00:57.015Z,1003.85
2017-02-03T19:01:57.701Z,1003.84
2017-02-03T19:02:58.430Z,1003.81
2017-02-03T19:03:59.817Z,1003.8
2017-02-03T19:05:00.511Z,1003.84
2017-02-03T19:06:01.210Z,1003.81
2017-02-03T19:07:02.092Z,1003.79
2017-02-03T19:08:03.121Z,1003.81
2017-02-03T19:09:03.800Z,1003.78
2017-02-03T19:10:04.486Z,1003.79
2017-02-03T19:11:05.176Z,1003.79
2017-02-03T19:12:05.877Z,1003.8
2017-02-03T19:13:06.587Z,1003.84
2017-02-03T19:14:07.278Z,1003.81
2017-02-03T19:15:07.998Z,1003.81
2017-02-03T19:16:08.683Z,1003.79
2017-02-03T19:17:09.377Z,1003.82
2017-02-03T19:18:10.059Z,1003.8
2017-02-03T19:19:10.731Z,1003.75
2017-02-03T19:20:11.400Z,1003.78
2017-02-03T19:21:12.082Z,1003.77
2017-02-03T19:22:12.753Z,1003.76
2017-02-03T19:23:13.476Z,1003.77
2017-02-03T19:24:14.160Z,1003.73
2017-02-03T19:25:14.838Z,1003.79
2017-02-03T19:26:15.528Z,1003.74
2017-02-03T19:27:16.198Z,1003.72
2017-02-03T19:28:16.872Z,1003.72
2017-02-03T19:29:17.531Z,1003.72
2017-02-03T19:30:18.251Z,1003.68
2017-02-03T19:31:18.992Z,1003.66
2017-02-03T19:32:19.705Z,1003.66
2017-02-03T19:33:20.393Z,1003.62
2017-02-03T19:34:21.069Z,1003.68
2017-02-03T19:35:21.742Z,1003.64
2017-02-03T19:36:22.580Z,1003.62
2017-02-03T19:37:23.340Z,1003.6
2017-02-03T19:38:24.080Z,1003.59
2017-02-03T19:39:24.874Z,1003.59
2017-02-03T19:40:25.641Z,1003.58
2017-02-03T19:41:26.371Z,1003.55
2017-02-03T19:42:27.114Z,1003.59
2017-02-03T19:43:27.846Z,1003.58
2017-02-03T19:44:28.605Z,1003.55
2017-02-03T19:45:29.315Z,1003.55
2017-02-03T19:46:30.041Z,1003.52
2017-02-03T19:47:30.790Z,1003.56
2017-02-03T19:48:31.477Z,1003.56
2017-02-03T19:49:32.145Z,1003.55
2017-02-03T19:50:32.834Z,1003.58
2017-02-03T19:51:33.502Z,1003.6
2017-02-03T19:52:34.214Z,1003.55
2017-02-03T19:53:34.902Z,1003.61
2017-02-03T19:54:35.581Z,1003.57
2017-02-03T19:55:36.244Z,1003.6
2017-02-03T19:56:36.938Z,1003.61
2017-02-03T19:57:37.627Z,1003.59
2017-02-03T19:58:38.321Z,1003.63
2017-02-03T19:59:39.009Z,1003.63
2017-02-03T20:00:39.668Z,1003.58
2017-02-03T20:01:40.427Z,1003.62
2017-02-03T20:02:41.300Z,1003.6
2017-02-03T20:03:42.173Z,1003.59
2017-02-03T20:04:43.451Z,1003.6
2017-02-03T20:05:44.523Z,1003.59
2017-02-03T20:06:46.036Z,1003.59
2017-02-03T20:07:47.380Z,1003.54
2017-02-03T20:08:48.268Z,1003.52
2017-02-03T20:09:49.201Z,1003.56
2017-02-03T20:10:49.878Z,1003.52
2017-02-03T20:11:50.627Z,1003.51
2017-02-03T20:12:51.482Z,1003.52
2017-02-03T20:13:52.470Z,1003.52
2017-02-03T20:14:53.207Z,1003.53
2017-02-03T20:15:54.365Z,1003.5
2017-02-03T20:16:55.323Z,1003.45
2017-02-03T20:17:56.060Z,1003.47
2017-02-03T20:18:57.510Z,1003.4
2017-02-03T20:19:59.218Z,1003.43
2017-02-03T20:21:00.632Z,1003.43
2017-02-03T20:22:01.761Z,1003.45
2017-02-03T20:23:02.682Z,1003.46
2017-02-03T20:24:03.863Z,1003.42
2017-02-03T20:25:05.376Z,1003.46
2017-02-03T20:26:06.533Z,1003.48
2017-02-03T20:27:07.859Z,1003.49
2017-02-03T20:28:09.217Z,1003.44
2017-02-03T20:29:10.353Z,1003.44
2017-02-03T20:30:11.577Z,1003.44
2017-02-03T20:31:12.841Z,1003.45
2017-02-03T20:32:13.970Z,1003.43
2017-02-03T20:33:15.169Z,1003.42
2017-02-03T20:34:16.301Z,1003.43
2017-02-03T20:35:17.404Z,1003.4
2017-02-03T20:36:18.769Z,1003.44
2017-02-03T20:37:19.988Z,1003.44
2017-02-03T20:38:20.949Z,1003.4
2017-02-03T20:39:24.716Z,1003.43
2017-02-03T20:40:27.923Z,1003.44
2017-02-03T20:41:28.989Z,1003.47
2017-02-03T20:42:30.125Z,1003.42
2017-02-03T20:43:31.066Z,1003.43
2017-02-03T20:44:32.239Z,1003.44
2017-02-03T20:45:33.193Z,1003.41
2017-02-03T20:46:36.788Z,1003.42
2017-02-03T20:47:37.889Z,1003.45
2017-02-03T20:48:38.654Z,1003.44
2017-02-03T20:49:39.442Z,1003.43
2017-02-03T20:50:40.311Z,1003.43
2017-02-03T20:51:41.012Z,1003.4
2017-02-03T20:52:41.731Z,1003.42
2017-02-03T20:53:42.459Z,1003.39
2017-02-03T20:54:43.174Z,1003.45
2017-02-03T20:55:43.875Z,1003.4
2017-02-03T20:56:44.586Z,1003.42
2017-02-03T20:57:45.325Z,1003.48
2017-02-03T20:58:46.099Z,1003.43
2017-02-03T20:59:46.781Z,1003.41
2017-02-03T21:00:47.477Z,1003.42
2017-02-03T21:01:48.343Z,1003.41
2017-02-03T21:02:49.307Z,1003.41
2017-02-03T21:03:50.150Z,1003.4
2017-02-03T21:04:50.966Z,1003.39
2017-02-03T21:05:52.104Z,1003.39
2017-02-03T21:06:52.882Z,1003.35
2017-02-03T21:07:53.661Z,1003.37
2017-02-03T21:08:54.348Z,1003.37
2017-02-03T21:09:55.036Z,1003.37
2017-02-03T21:10:55.817Z,1003.36
2017-02-03T21:11:56.508Z,1003.35
2017-02-03T21:12:57.229Z,1003.36
2017-02-03T21:13:57.933Z,1003.32
2017-02-03T21:14:58.637Z,1003.32
2017-02-03T21:15:59.367Z,1003.33
2017-02-03T21:17:00.028Z,1003.35
2017-02-03T21:18:00.781Z,1003.31
2017-02-03T21:19:01.517Z,1003.32
2017-02-03T21:20:02.233Z,1003.32
2017-02-03T21:21:02.918Z,1003.3
2017-02-03T21:22:03.603Z,1003.33
2017-02-03T21:23:04.317Z,1003.34
2017-02-03T21:24:05.015Z,1003.3
2017-02-03T21:25:05.775Z,1003.31
2017-02-03T21:26:06.451Z,1003.3
2017-02-03T21:27:07.135Z,1003.3
2017-02-03T21:28:07.815Z,1003.28
2017-02-03T21:29:08.514Z,1003.33
2017-02-03T21:30:09.248Z,1003.29
2017-02-03T21:31:10.254Z,1003.3
2017-02-03T21:32:10.945Z,1003.35
2017-02-03T21:33:11.690Z,1003.33
2017-02-03T21:34:12.316Z,1003.36
2017-02-03T21:35:13.064Z,1003.34
2017-02-03T21:36:13.740Z,1003.36
2017-02-03T21:37:14.417Z,1003.36
2017-02-03T21:38:15.114Z,1003.37
2017-02-03T21:39:15.797Z,1003.35
2017-02-03T21:40:16.468Z,1003.29
2017-02-03T21:41:17.154Z,1003.32
2017-02-03T21:42:17.813Z,1003.33
2017-02-03T21:43:18.537Z,1003.32
2017-02-03T21:44:19.217Z,1003.35
2017-02-03T21:45:19.899Z,1003.35
2017-02-03T21:46:20.678Z,1003.32
2017-02-03T21:47:21.318Z,1003.34
2017-02-03T21:48:22.108Z,1003.37
2017-02-03T21:49:22.791Z,1003.34
2017-02-03T21:50:23.505Z,1003.38
2017-02-03T21:51:24.193Z,1003.37
2017-02-03T21:52:24.873Z,1003.35
2017-02-03T21:53:25.545Z,1003.38
2017-02-03T21:54:26.237Z,1003.31
2017-02-03T21:55:26.908Z,1003.36
2017-02-03T21:56:27.583Z,1003.33
2017-02-03T21:57:28.257Z,1003.3
2017-02-03T21:58:29.023Z,1003.34
2017-02-03T21:59:29.741Z,1003.32
2017-02-03T22:00:30.484Z,1003.3
2017-02-03T22:01:31.163Z,1003.27
2017-02-03T22:02:31.883Z,1003.29
2017-02-03T22:03:32.555Z,1003.32
2017-02-03T22:04:33.250Z,1003.28
2017-02-03T22:05:33.985Z,1003.3
2017-02-03T22:06:34.675Z,1003.26
2017-02-03T22:07:35.383Z,1003.23
2017-02-03T22:08:36.097Z,1003.24
2017-02-03T22:09:36.763Z,1003.22
2017-02-03T22:10:37.460Z,1003.21
2017-02-03T22:11:38.141Z,1003.17
2017-02-03T22:12:38.814Z,1003.19
2017-02-03T22:13:39.499Z,1003.17
2017-02-03T22:14:40.183Z,1003.12
2017-02-03T22:15:40.911Z,1003.1
2017-02-03T22:16:41.635Z,1003.08
2017-02-03T22:17:42.299Z,1003.09
2017-02-03T22:18:42.996Z,1003.06
2017-02-03T22:19:43.813Z,1003.04
2017-02-03T22:20:44.464Z,1002.99
2017-02-03T22:21:45.170Z,1003
2017-02-03T22:22:45.853Z,1002.98
2017-02-03T22:23:46.568Z,1002.95
2017-02-03T22:24:47.505Z,1002.94
2017-02-03T22:25:48.388Z,1002.91
2017-02-03T22:26:49.203Z,1002.91
2017-02-03T22:27:50.065Z,1002.88
2017-02-03T22:28:50.810Z,1002.87
2017-02-03T22:29:51.520Z,1002.81
2017-02-03T22:30:52.247Z,1002.79
2017-02-03T22:31:53.159Z,1002.75
2017-02-03T22:32:53.812Z,1002.72
2017-02-03T22:33:54.538Z,1002.72
2017-02-03T22:34:55.256Z,1002.7
2017-02-03T22:35:55.981Z,1002.72
2017-02-03T22:36:56.698Z,1002.73
2017-02-03T22:37:57.418Z,1002.73
2017-02-03T22:38:58.123Z,1002.77
2017-02-03T22:39:58.847Z,1002.86
2017-02-03T22:40:59.655Z,1002.85
2017-02-03T22:42:00.312Z,1002.81
2017-02-03T22:43:01.046Z,1002.77
2017-02-03T22:44:01.816Z,1002.75
2017-02-03T22:45:02.473Z,1002.79
2017-02-03T22:46:03.203Z,1002.74
2017-02-03T22:47:04.035Z,1002.77
2017-02-03T22:48:04.657Z,1002.76
2017-02-03T22:49:05.357Z,1002.72
2017-02-03T22:50:06.483Z,1002.74
2017-02-03T22:51:07.228Z,1002.76
2017-02-03T22:52:08.087Z,1002.79
2017-02-03T22:53:08.812Z,1002.83
2017-02-03T22:54:10.161Z,1002.85
2017-02-03T22:55:10.997Z,1002.93
2017-02-03T22:56:11.695Z,1002.92
2017-02-03T22:57:12.493Z,1002.93
2017-02-03T22:58:13.314Z,1002.96
2017-02-03T22:59:14.565Z,1002.93
2017-02-03T23:00:15.223Z,1002.91
2017-02-03T23:01:15.978Z,1002.92
2017-02-03T23:02:16.869Z,1002.9
2017-02-03T23:03:17.530Z,1002.96
2017-02-03T23:04:18.250Z,1002.99
2017-02-03T23:05:18.952Z,1003.02
2017-02-03T23:06:19.718Z,1003.02
2017-02-03T23:07:20.625Z,1002.98
2017-02-03T23:08:21.835Z,1002.94
2017-02-03T23:09:22.545Z,1003
2017-02-03T23:10:23.658Z,1003.01
2017-02-03T23:11:24.461Z,1002.98
2017-02-03T23:12:25.263Z,1003.01
2017-02-03T23:13:26.087Z,1002.98
2017-02-03T23:14:26.868Z,1003.03
2017-02-03T23:15:27.560Z,1003.03
2017-02-03T23:16:28.364Z,1003.02
2017-02-03T23:17:29.284Z,1002.96
2017-02-03T23:18:30.004Z,1002.94
2017-02-03T23:19:31.067Z,1002.89
2017-02-03T23:20:32.277Z,1002.88
2017-02-03T23:21:33.355Z,1002.95
2017-02-03T23:22:34.145Z,1002.87
2017-02-03T23:23:34.865Z,1002.85
2017-02-03T23:24:35.599Z,1002.87
2017-02-03T23:25:36.831Z,1002.9
2017-02-03T23:26:37.630Z,1002.9
2017-02-03T23:27:38.410Z,1002.85
2017-02-03T23:28:39.115Z,1002.86
2017-02-03T23:29:39.826Z,1002.83
2017-02-03T23:30:40.524Z,1002.84
2017-02-03T23:31:41.237Z,1002.83
2017-02-03T23:32:42.020Z,1002.78
2017-02-03T23:33:42.745Z,1002.79
2017-02-03T23:34:43.465Z,1002.76
2017-02-03T23:35:44.259Z,1002.73
2017-02-03T23:36:44.966Z,1002.73
2017-02-03T23:37:45.698Z,1002.76
2017-02-03T23:38:46.673Z,1002.7
2017-02-03T23:39:47.427Z,1002.66
2017-02-03T23:40:48.529Z,1002.65
2017-02-03T23:41:49.250Z,1002.66
2017-02-03T23:42:50.079Z,1002.64
2017-02-03T23:43:51.065Z,1002.65
2017-02-03T23:44:51.812Z,1002.66
2017-02-03T23:45:52.492Z,1002.65
2017-02-03T23:46:53.182Z,1002.6
2017-02-03T23:47:54.440Z,1002.62
2017-02-03T23:48:55.383Z,1002.64
2017-02-03T23:49:56.133Z,1002.74
2017-02-03T23:50:56.901Z,1002.75
2017-02-03T23:51:57.585Z,1002.75
2017-02-03T23:52:58.320Z,1002.72
2017-02-03T23:53:59.387Z,1002.71
2017-02-03T23:55:00.078Z,1002.7
2017-02-03T23:56:00.897Z,1002.66
2017-02-03T23:57:01.619Z,1002.68
2017-02-03T23:58:02.289Z,1002.68
2017-02-03T23:59:02.995Z,1002.72
